TimeCST,TemperatureF,Dew PointF,Humidity,Sea Level PressureIn,VisibilityMPH,Wind Direction,Wind SpeedMPH,Gust SpeedMPH,PrecipitationIn,Events,Conditions,WindDirDegrees,DateUTC
12:11 AM,35.6,32.0,87,30.20,3.0,Calm,Calm,-,N/A,,Clear,0,2012-11-09 06:11:00
12:20 AM,35.6,32.0,87,30.20,2.5,Calm,Calm,-,N/A,,Clear,0,2012-11-09 06:20:00
12:35 AM,35.6,32.0,87,30.20,1.5,Calm,Calm,-,N/A,,Clear,0,2012-11-09 06:35:00
12:46 AM,35.6,32.0,87,30.20,0.8,Calm,Calm,-,N/A,,Clear,0,2012-11-09 06:46:00
12:53 AM,35.1,32.0,89,30.21,1.0,Calm,Calm,-,N/A,,Clear,0,2012-11-09 06:53:00
1:09 AM,35.6,32.0,87,30.20,0.8,Calm,Calm,-,N/A,,Clear,0,2012-11-09 07:09:00
1:23 AM,35.6,32.0,87,30.20,0.2,Calm,Calm,-,N/A,Fog,Fog,0,2012-11-09 07:23:00
1:32 AM,33.8,30.2,87,30.20,0.2,Calm,Calm,-,N/A,Fog,Fog,0,2012-11-09 07:32:00
1:38 AM,33.8,30.2,87,30.20,1.0,Calm,Calm,-,N/A,,Mist,0,2012-11-09 07:38:00
1:41 AM,33.8,30.2,87,30.20,2.0,Calm,Calm,-,N/A,,Partly Cloudy,0,2012-11-09 07:41:00
1:53 AM,33.1,30.9,92,30.21,1.5,Calm,Calm,-,N/A,,Partly Cloudy,0,2012-11-09 07:53:00
1:55 AM,33.8,30.2,87,30.21,1.0,Calm,Calm,-,N/A,,Mist,0,2012-11-09 07:55:00
1:57 AM,33.8,30.2,87,30.21,0.8,Calm,Calm,-,N/A,,Clear,0,2012-11-09 07:57:00
2:06 AM,33.8,30.2,87,30.21,1.0,Calm,Calm,-,N/A,,Mist,0,2012-11-09 08:06:00
2:16 AM,33.8,30.2,87,30.21,1.8,Calm,Calm,-,N/A,,Scattered Clouds,0,2012-11-09 08:16:00
2:27 AM,33.8,30.2,87,30.21,1.2,Calm,Calm,-,N/A,,Scattered Clouds,0,2012-11-09 08:27:00
2:35 AM,33.8,30.2,87,30.21,1.5,Calm,Calm,-,N/A,,Partly Cloudy,0,2012-11-09 08:35:00
2:38 AM,33.8,30.2,87,30.21,1.0,Calm,Calm,-,N/A,,Mist,0,2012-11-09 08:38:00
2:41 AM,33.8,30.2,87,30.21,0.8,Calm,Calm,-,N/A,,Clear,0,2012-11-09 08:41:00
2:53 AM,32.0,30.0,92,30.22,2.5,Calm,Calm,-,N/A,,Clear,0,2012-11-09 08:53:00
3:28 AM,33.8,30.2,87,30.23,1.8,Calm,Calm,-,N/A,,Clear,0,2012-11-09 09:28:00
3:53 AM,32.0,30.0,92,30.24,1.2,Calm,Calm,-,N/A,,Clear,0,2012-11-09 09:53:00
4:04 AM,32.0,28.4,87,30.24,2.5,Calm,Calm,-,N/A,,Clear,0,2012-11-09 10:04:00
4:12 AM,30.2,28.4,93,30.24,4.0,Calm,Calm,-,N/A,,Clear,0,2012-11-09 10:12:00
4:22 AM,30.2,28.4,93,30.25,1.5,Calm,Calm,-,N/A,,Clear,0,2012-11-09 10:22:00
4:32 AM,32.0,30.2,93,30.25,1.5,Calm,Calm,-,N/A,,Scattered Clouds,0,2012-11-09 10:32:00
4:40 AM,32.0,28.4,87,30.25,2.5,Calm,Calm,-,N/A,,Partly Cloudy,0,2012-11-09 10:40:00
4:53 AM,32.0,28.9,88,30.26,4.0,Calm,Calm,-,N/A,,Partly Cloudy,0,2012-11-09 10:53:00
5:09 AM,32.0,28.4,87,30.26,4.0,Calm,Calm,-,N/A,,Mostly Cloudy,0,2012-11-09 11:09:00
5:44 AM,32.0,28.4,87,30.27,2.0,Calm,Calm,-,N/A,,Scattered Clouds,0,2012-11-09 11:44:00
5:53 AM,32.0,28.9,88,30.27,0.5,Calm,Calm,-,N/A,Fog,Fog,0,2012-11-09 11:53:00
6:32 AM,30.2,28.4,93,30.26,1.2,Calm,Calm,-,N/A,,Partly Cloudy,0,2012-11-09 12:32:00
6:35 AM,30.2,28.4,93,30.26,2.0,Calm,Calm,-,N/A,,Partly Cloudy,0,2012-11-09 12:35:00
6:53 AM,32.0,28.9,88,30.28,3.0,Calm,Calm,-,N/A,,Clear,0,2012-11-09 12:53:00
7:05 AM,33.8,30.2,87,30.27,2.5,Calm,Calm,-,N/A,,Clear,0,2012-11-09 13:05:00
7:40 AM,37.4,33.8,87,30.27,3.0,Calm,Calm,-,N/A,,Clear,0,2012-11-09 13:40:00
7:53 AM,39.0,35.1,86,30.29,3.0,Calm,Calm,-,N/A,,Clear,0,2012-11-09 13:53:00
8:53 AM,50.0,41.0,71,30.28,7.0,South,3.5,-,N/A,,Clear,170,2012-11-09 14:53:00
9:53 AM,57.0,42.1,57,30.27,9.0,SSW,9.2,-,N/A,,Clear,200,2012-11-09 15:53:00
10:53 AM,60.1,42.1,51,30.25,10.0,South,6.9,-,N/A,,Clear,190,2012-11-09 16:53:00
11:53 AM,64.0,41.0,43,30.22,10.0,SSW,10.4,-,N/A,,Clear,200,2012-11-09 17:53:00
12:53 PM,66.0,41.0,40,30.19,10.0,SSW,8.1,-,N/A,,Clear,210,2012-11-09 18:53:00
1:53 PM,66.0,39.9,38,30.18,10.0,South,10.4,-,N/A,,Clear,180,2012-11-09 19:53:00
2:53 PM,66.0,39.0,37,30.16,10.0,South,10.4,-,N/A,,Clear,180,2012-11-09 20:53:00
3:53 PM,64.9,37.9,37,30.15,10.0,South,9.2,-,N/A,,Clear,190,2012-11-09 21:53:00
4:53 PM,62.1,37.9,41,30.16,10.0,SSE,4.6,-,N/A,,Clear,160,2012-11-09 22:53:00
5:53 PM,60.1,37.9,44,30.16,10.0,South,4.6,-,N/A,,Clear,170,2012-11-09 23:53:00
6:53 PM,55.0,37.9,53,30.16,10.0,SSE,3.5,-,N/A,,Clear,160,2012-11-10 00:53:00
7:53 PM,55.9,37.9,51,30.16,10.0,SSE,4.6,-,N/A,,Clear,160,2012-11-10 01:53:00
8:53 PM,55.0,37.9,53,30.17,10.0,South,3.5,-,N/A,,Clear,180,2012-11-10 02:53:00
9:53 PM,55.0,37.9,53,30.17,10.0,South,5.8,-,N/A,,Clear,190,2012-11-10 03:53:00
10:53 PM,54.0,39.0,57,30.17,10.0,South,5.8,-,N/A,,Clear,190,2012-11-10 04:53:00
11:53 PM,52.0,39.0,61,30.17,10.0,South,6.9,-,N/A,,Clear,180,2012-11-10 05:53:00